SLD weather

Sliač Airport
Sliač, Banská Bystrica, Slovakia

Public forecast

Using degrees Celsius for public forecast. Weather courtesy of forecast.io.

METAR (pilot weather report)

Retrieved 2019/05/22 14:30 UTC (4 minutes ago):

LZSL 221430Z 22008KT 9999 FEW010 BKN031 16/12 Q1007

TAF (pilot weather forecast)

Forecast is more than 12 hours old.

Retrieved 2014/05/01 21:18 UTC (5 years ago):

TAF TAF LZSL 302000Z 3021/0106 VRB02KT 8000 NSC BECMG 3022/3024 3500 BCFG SCT001 TEMPO 3022/0106 0150 FG BKN001